Time;durP1;ratioP1;P1;durP2;ratioP2;P2;SDS_P1;SDS_P2;PMS_P1;PMS_P2;Temp;Humidity;BMP_temperature;BMP_pressure;BME280_temperature;BME280_humidity;BME280_pressure;Samples;Min_cycle;Max_cycle;Signal;HPM_P1;HPM_P2
2024/01/01 00:02:23;;;;;;;6.47;4.60;;;9.50;99.90;;;;;;4955289;29;20470;-53
2024/01/01 00:04:49;;;;;;;8.55;4.95;;;9.20;99.90;;;;;;4955927;29;20035;-53
2024/01/01 00:07:15;;;;;;;7.38;3.63;;;;;;;;;;4956052;29;20182;-56
2024/01/01 00:09:40;;;;;;;3.95;2.83;;;9.20;99.90;;;;;;4955955;29;20023;-50
2024/01/01 00:12:08;;;;;;;5.97;3.08;;;;;;;;;;4955486;29;20035;-56
2024/01/01 00:14:34;;;;;;;10.38;7.60;;;9.00;99.90;;;;;;4955027;29;20036;-53
2024/01/01 00:17:01;;;;;;;6.35;4.18;;;9.20;99.90;;;;;;4955357;29;20031;-52
2024/01/01 00:19:27;;;;;;;7.70;5.45;;;9.20;99.90;;;;;;4955733;29;20422;-56
2024/01/01 00:21:52;;;;;;;7.18;2.38;;;9.40;99.90;;;;;;4954576;28;20020;-53
2024/01/01 00:24:18;;;;;;;5.03;3.75;;;9.50;99.90;;;;;;4905990;29;20039;-55
2024/01/01 00:26:44;;;;;;;7.22;5.03;;;9.50;99.90;;;;;;4955215;29;20055;-53
2024/01/01 00:29:10;;;;;;;6.88;5.18;;;9.50;99.90;;;;;;4955270;29;20027;-54
2024/01/01 00:31:39;;;;;;;5.53;4.55;;;9.40;99.90;;;;;;4955367;29;20054;-53
2024/01/01 00:34:05;;;;;;;7.03;5.25;;;9.40;99.90;;;;;;4955110;29;20060;-55
2024/01/01 00:36:31;;;;;;;7.43;4.07;;;9.50;99.90;;;;;;4955220;29;20474;-56
2024/01/01 00:38:56;;;;;;;7.78;4.88;;;9.60;99.90;;;;;;4955299;29;20077;-56
2024/01/01 00:41:22;;;;;;;6.63;4.35;;;9.80;99.90;;;;;;4905687;29;20039;-55
2024/01/01 00:43:49;;;;;;;5.00;3.97;;;9.90;99.90;;;;;;4901693;29;20067;-51
2024/01/01 00:46:15;;;;;;;7.50;5.05;;;10.00;99.90;;;;;;4936055;29;20466;-55
2024/01/01 00:48:40;;;;;;;6.78;4.82;;;10.00;99.90;;;;;;4936332;29;20063;-54
2024/01/01 00:51:06;;;;;;;7.88;5.90;;;9.90;99.90;;;;;;4935731;29;20424;-55
2024/01/01 00:53:33;;;;;;;7.45;5.45;;;9.70;99.90;;;;;;4935838;29;20028;-55
2024/01/01 00:55:58;;;;;;;10.20;7.88;;;9.60;99.90;;;;;;4935393;29;20091;-53
2024/01/01 00:58:24;;;;;;;10.30;7.78;;;9.50;99.90;;;;;;4901949;29;20039;-50
2024/01/01 01:00:50;;;;;;;13.05;7.43;;;9.30;99.90;;;;;;4935795;29;20535;-55
2024/01/01 01:03:16;;;;;;;10.35;7.53;;;;;;;;;;4935588;29;20031;-53
2024/01/01 01:05:42;;;;;;;14.50;8.23;;;;;;;;;;4935849;29;20020;-54
2024/01/01 01:08:08;;;;;;;11.75;7.88;;;;;;;;;;4935706;29;20035;-56
2024/01/01 01:10:34;;;;;;;12.60;9.27;;;;;;;;;;4935477;29;20074;-57
2024/01/01 01:13:00;;;;;;;15.13;10.23;;;9.10;99.90;;;;;;4935566;29;20035;-55
2024/01/01 01:15:27;;;;;;;18.63;13.48;;;9.00;99.90;;;;;;4901635;29;20496;-56
2024/01/01 01:17:53;;;;;;;15.30;12.40;;;9.10;99.90;;;;;;4934806;29;20039;-56
2024/01/01 01:20:19;;;;;;;16.80;14.18;;;9.00;99.90;;;;;;4941081;29;20027;-56
2024/01/01 01:22:45;;;;;;;15.13;11.13;;;9.10;99.90;;;;;;4954489;29;20443;-53
2024/01/01 01:25:12;;;;;;;19.58;10.82;;;9.20;99.90;;;;;;4954231;29;20043;-57
2024/01/01 01:27:40;;;;;;;15.75;10.32;;;9.20;99.90;;;;;;4936310;29;20055;-52
2024/01/01 01:30:07;;;;;;;15.30;11.18;;;9.20;99.90;;;;;;4936516;29;20066;-52
2024/01/01 01:32:32;;;;;;;13.75;9.43;;;9.30;99.90;;;;;;4954229;28;20480;-56
2024/01/01 01:34:58;;;;;;;14.25;9.23;;;9.40;99.90;;;;;;4954042;29;20027;-53
2024/01/01 01:37:24;;;;;;;12.07;9.48;;;9.40;99.90;;;;;;4954174;29;20455;-55
2024/01/01 01:39:49;;;;;;;13.30;8.77;;;9.50;99.90;;;;;;4920209;29;20051;-56
2024/01/01 01:42:15;;;;;;;14.57;8.95;;;9.60;99.90;;;;;;4935982;29;20051;-56
2024/01/01 01:44:41;;;;;;;13.05;9.20;;;9.60;99.90;;;;;;4935973;29;20070;-57
2024/01/01 01:47:08;;;;;;;11.88;9.40;;;;;;;;;;4953969;29;20046;-57
2024/01/01 01:49:34;;;;;;;11.15;8.52;;;;;;;;;;4954106;29;20042;-53
2024/01/01 01:52:03;;;;;;;11.80;8.90;;;9.50;99.90;;;;;;4953612;29;20542;-57
2024/01/01 01:54:30;;;;;;;12.57;8.52;;;9.40;99.90;;;;;;4954016;29;20042;-54
2024/01/01 01:56:56;;;;;;;13.05;9.30;;;9.20;99.90;;;;;;4953831;29;20505;-54
2024/01/01 01:59:22;;;;;;;12.38;8.30;;;9.10;99.90;;;;;;4954156;29;20028;-52
2024/01/01 02:01:49;;;;;;;13.27;9.70;;;9.00;99.90;;;;;;4935884;29;20093;-54
2024/01/01 02:04:16;;;;;;;12.85;8.85;;;9.00;99.90;;;;;;4953728;29;20513;-56
2024/01/01 02:06:42;;;;;;;14.43;10.05;;;8.90;99.90;;;;;;4953970;29;20045;-54
2024/01/01 02:09:09;;;;;;;18.05;10.25;;;8.90;99.90;;;;;;4904127;29;20122;-54
2024/01/01 02:11:34;;;;;;;20.73;13.43;;;9.00;99.90;;;;;;4951725;29;20388;-55
2024/01/01 02:14:11;;;;;;;16.15;12.48;;;9.00;99.90;;;;;;4953623;29;20046;-56
2024/01/01 02:16:38;;;;;;;19.35;13.00;;;8.90;99.90;;;;;;4950721;29;20039;-56
2024/01/01 02:19:08;;;;;;;16.42;11.30;;;8.90;99.90;;;;;;4950052;29;20035;-53
2024/01/01 02:21:34;;;;;;;16.40;11.35;;;9.00;99.90;;;;;;4954018;29;20035;-54
2024/01/01 02:24:00;;;;;;;18.15;11.80;;;9.00;99.90;;;;;;4953693;29;20035;-52
2024/01/01 02:26:26;;;;;;;21.65;14.48;;;8.90;99.90;;;;;;4951092;28;20066;-54
2024/01/01 02:28:51;;;;;;;27.45;17.90;;;8.90;99.90;;;;;;4952729;29;20031;-57
2024/01/01 02:31:17;;;;;;;28.83;17.60;;;8.70;99.90;;;;;;4953130;29;20035;-54
2024/01/01 02:33:43;;;;;;;35.10;18.10;;;8.70;99.90;;;;;;4953242;29;20431;-54
2024/01/01 02:36:08;;;;;;;35.00;18.67;;;8.50;99.90;;;;;;4952661;29;20048;-56
2024/01/01 02:38:34;;;;;;;37.08;20.92;;;8.50;99.90;;;;;;4952755;29;20034;-55
2024/01/01 02:41:00;;;;;;;26.33;15.95;;;8.50;99.90;;;;;;4951850;28;20063;-53
2024/01/01 02:43:26;;;;;;;21.02;15.85;;;8.50;99.90;;;;;;4952162;29;20023;-52
2024/01/01 02:45:52;;;;;;;21.40;16.00;;;8.50;99.90;;;;;;4954737;28;20070;-51
2024/01/01 02:48:17;;;;;;;16.38;11.93;;;8.50;99.90;;;;;;4956045;29;20100;-56
2024/01/01 02:50:43;;;;;;;18.48;12.43;;;8.60;99.90;;;;;;4922021;29;20040;-57
2024/01/01 02:53:09;;;;;;;14.65;10.82;;;8.70;99.90;;;;;;4955363;29;21327;-58
2024/01/01 02:55:35;;;;;;;16.58;12.35;;;8.70;99.90;;;;;;4953443;29;20085;-56
2024/01/01 02:58:02;;;;;;;16.05;11.88;;;8.70;99.90;;;;;;4956070;29;20117;-56
2024/01/01 03:00:28;;;;;;;18.15;13.05;;;8.80;99.90;;;;;;4955826;29;20032;-57
2024/01/01 03:02:53;;;;;;;16.30;10.60;;;8.70;99.90;;;;;;4954815;28;20581;-53
2024/01/01 03:05:22;;;;;;;13.75;9.52;;;8.60;99.90;;;;;;4955888;28;20399;-58
2024/01/01 03:07:48;;;;;;;15.02;10.45;;;8.50;99.90;;;;;;4956688;29;20369;-56
2024/01/01 03:10:14;;;;;;;17.42;12.38;;;8.60;99.90;;;;;;4956534;29;20518;-60
2024/01/01 03:12:40;;;;;;;18.35;11.55;;;8.40;99.90;;;;;;4956862;29;20031;-56
2024/01/01 03:15:06;;;;;;;14.57;10.85;;;8.40;99.90;;;;;;4956804;29;20043;-53
2024/01/01 03:17:32;;;;;;;15.05;10.55;;;8.40;99.90;;;;;;4938414;29;20130;-53
2024/01/01 03:19:57;;;;;;;10.82;7.40;;;8.40;99.90;;;;;;4956669;29;20123;-54
2024/01/01 03:22:24;;;;;;;11.50;7.97;;;;;;;;;;4906709;29;20047;-56
2024/01/01 03:24:50;;;;;;;13.23;9.30;;;;;;;;;;4956664;29;20035;-57
2024/01/01 03:27:15;;;;;;;10.50;6.38;;;9.50;99.90;;;;;;4922041;29;20051;-56
2024/01/01 03:29:42;;;;;;;10.85;7.45;;;9.20;99.90;;;;;;4956396;29;20057;-53
2024/01/01 03:32:07;;;;;;;9.57;6.22;;;9.40;99.90;;;;;;4956300;29;20093;-52
2024/01/01 03:34:34;;;;;;;10.98;6.88;;;9.40;99.90;;;;;;4938230;29;20043;-55
2024/01/01 03:37:00;;;;;;;8.50;6.15;;;9.40;99.90;;;;;;4938031;29;20135;-57
2024/01/01 03:39:26;;;;;;;7.85;6.22;;;9.50;99.90;;;;;;4956137;29;20035;-53
2024/01/01 03:41:52;;;;;;;8.60;6.30;;;9.40;99.90;;;;;;4956625;29;20481;-53
2024/01/01 03:44:18;;;;;;;10.10;7.57;;;9.30;99.90;;;;;;4938034;29;20077;-50
2024/01/01 03:46:44;;;;;;;11.52;8.07;;;9.30;99.90;;;;;;4956140;29;20118;-56
2024/01/01 03:49:10;;;;;;;12.35;8.13;;;;;;;;;;4956548;29;20039;-58
2024/01/01 03:51:37;;;;;;;14.05;9.60;;;;;;;;;;4955986;29;20039;-53
2024/01/01 03:54:03;;;;;;;14.30;11.45;;;;;;;;;;4955995;29;20086;-55
2024/01/01 03:56:29;;;;;;;17.23;11.32;;;8.70;99.90;;;;;;4955223;28;20126;-54
2024/01/01 03:58:55;;;;;;;17.00;11.80;;;8.60;99.90;;;;;;4921981;29;20058;-51
2024/01/01 04:01:21;;;;;;;17.10;12.32;;;8.60;99.90;;;;;;4937815;29;20047;-54
2024/01/01 04:03:47;;;;;;;15.13;11.23;;;;;;;;;;4921334;29;20056;-58
2024/01/01 04:06:13;;;;;;;18.38;12.65;;;;;;;;;;4955858;29;20026;-57
2024/01/01 04:08:39;;;;;;;15.27;10.20;;;;;;;;;;4956232;29;20035;-51
2024/01/01 04:11:05;;;;;;;13.77;10.07;;;;;;;;;;4955650;29;20051;-50
2024/01/01 04:13:31;;;;;;;16.35;10.75;;;8.40;99.90;;;;;;4955575;29;20131;-55
2024/01/01 04:15:57;;;;;;;16.02;11.18;;;8.20;99.90;;;;;;4955849;29;20502;-54
2024/01/01 04:18:23;;;;;;;16.50;12.10;;;8.20;99.90;;;;;;4955738;29;20438;-54
2024/01/01 04:20:49;;;;;;;15.23;11.35;;;8.30;99.90;;;;;;4955605;29;20038;-53
2024/01/01 04:23:15;;;;;;;15.15;11.52;;;8.20;99.90;;;;;;4955331;29;20119;-54
2024/01/01 04:25:41;;;;;;;23.05;13.32;;;8.20;99.90;;;;;;4955904;29;20028;-56
2024/01/01 04:28:07;;;;;;;16.17;11.68;;;8.20;99.90;;;;;;4955219;29;20062;-57
2024/01/01 04:30:32;;;;;;;13.25;9.73;;;8.20;99.90;;;;;;4955357;29;20031;-57
2024/01/01 04:32:58;;;;;;;16.02;11.20;;;8.20;99.90;;;;;;4955310;29;20102;-56
2024/01/01 04:35:24;;;;;;;15.35;10.63;;;8.30;99.90;;;;;;4955334;29;20055;-54
2024/01/01 04:37:50;;;;;;;15.02;11.07;;;8.40;99.90;;;;;;4955069;29;20518;-53
2024/01/01 04:40:16;;;;;;;15.30;10.52;;;8.40;99.90;;;;;;4955200;29;20118;-52
2024/01/01 04:42:42;;;;;;;15.95;10.88;;;8.30;99.90;;;;;;4955065;29;20211;-54
2024/01/01 04:45:08;;;;;;;15.68;11.38;;;8.40;99.90;;;;;;4905163;29;20046;-56
2024/01/01 04:47:34;;;;;;;14.98;10.82;;;8.50;99.90;;;;;;4954991;29;20079;-56
2024/01/01 04:50:00;;;;;;;14.73;10.57;;;8.60;99.90;;;;;;4954668;29;20039;-56
2024/01/01 04:52:26;;;;;;;15.82;11.50;;;8.60;99.90;;;;;;4905390;29;20047;-55
2024/01/01 04:54:56;;;;;;;15.45;11.18;;;8.70;99.90;;;;;;4954753;29;20123;-53
2024/01/01 04:57:21;;;;;;;16.85;11.93;;;8.70;99.90;;;;;;4954638;29;20499;-54
2024/01/01 04:59:47;;;;;;;15.68;11.52;;;8.70;99.90;;;;;;4954710;29;20027;-55
2024/01/01 05:02:15;;;;;;;17.13;12.55;;;8.70;99.90;;;;;;4954268;29;20114;-55
2024/01/01 05:04:41;;;;;;;18.30;12.70;;;8.70;99.90;;;;;;4954623;29;20035;-55
2024/01/01 05:07:07;;;;;;;18.88;11.43;;;8.70;99.90;;;;;;4954960;29;20035;-53
2024/01/01 05:09:32;;;;;;;12.57;9.80;;;8.60;99.90;;;;;;4954449;28;20027;-55
2024/01/01 05:11:58;;;;;;;15.98;11.70;;;8.60;99.90;;;;;;4954607;29;20049;-54
2024/01/01 05:14:24;;;;;;;13.15;10.48;;;8.60;99.90;;;;;;4920619;29;20031;-55
2024/01/01 05:16:50;;;;;;;16.48;12.02;;;8.60;99.90;;;;;;4954394;29;20571;-53
2024/01/01 05:19:16;;;;;;;17.27;11.98;;;8.60;99.90;;;;;;4954357;29;20077;-54
2024/01/01 05:21:42;;;;;;;17.45;12.27;;;8.70;99.90;;;;;;4873672;29;20031;-52
2024/01/01 05:24:08;;;;;;;14.70;12.30;;;8.70;99.90;;;;;;4954387;29;20054;-50
2024/01/01 05:26:33;;;;;;;14.88;10.57;;;8.80;99.90;;;;;;4954146;29;20439;-53
2024/01/01 05:28:59;;;;;;;17.05;10.57;;;8.80;99.90;;;;;;4954238;29;20039;-53
2024/01/01 05:31:25;;;;;;;18.05;12.70;;;;;;;;;;4954605;29;20030;-53
2024/01/01 05:33:51;;;;;;;17.40;12.07;;;8.80;99.90;;;;;;4954230;29;20046;-54
2024/01/01 05:36:17;;;;;;;16.48;12.32;;;8.80;99.90;;;;;;4954262;29;20506;-52
2024/01/01 05:38:42;;;;;;;13.75;10.60;;;8.90;99.90;;;;;;4904459;29;20043;-55
2024/01/01 05:41:11;;;;;;;14.43;10.95;;;9.10;99.90;;;;;;4920128;29;20110;-54
2024/01/01 05:43:38;;;;;;;15.55;10.88;;;9.10;99.90;;;;;;4920039;29;20035;-55
2024/01/01 05:46:03;;;;;;;16.33;11.70;;;9.20;99.90;;;;;;4919846;29;20054;-52
2024/01/01 05:48:29;;;;;;;15.27;11.27;;;9.30;99.90;;;;;;4888445;29;20478;-53
2024/01/01 05:50:55;;;;;;;15.95;10.85;;;9.30;99.90;;;;;;4954195;29;20035;-53
2024/01/01 05:53:21;;;;;;;13.45;9.77;;;9.30;99.90;;;;;;4953983;29;20066;-54
2024/01/01 05:55:46;;;;;;;12.48;9.35;;;9.30;99.90;;;;;;4953519;29;20078;-55
2024/01/01 05:58:12;;;;;;;11.57;7.43;;;9.40;99.90;;;;;;4953872;29;20054;-52
2024/01/01 06:00:39;;;;;;;12.70;9.23;;;9.50;99.90;;;;;;4903421;29;20046;-55
2024/01/01 06:03:05;;;;;;;15.38;10.93;;;9.50;99.90;;;;;;4903950;29;20039;-58
2024/01/01 06:05:34;;;;;;;12.77;9.95;;;9.50;99.90;;;;;;4953810;29;20086;-54
2024/01/01 06:08:04;;;;;;;10.27;7.60;;;9.50;99.90;;;;;;4953655;29;20024;-52
2024/01/01 06:10:32;;;;;;;13.07;8.27;;;9.50;99.90;;;;;;4953793;29;20158;-56
2024/01/01 06:12:58;;;;;;;11.05;7.80;;;9.60;99.90;;;;;;4953507;29;20054;-53
2024/01/01 06:15:25;;;;;;;12.27;9.05;;;9.70;99.90;;;;;;4919642;29;20137;-54
2024/01/01 06:17:52;;;;;;;12.93;9.90;;;9.80;99.90;;;;;;4953277;29;20065;-55
2024/01/01 06:20:18;;;;;;;13.77;9.73;;;9.80;99.90;;;;;;4954930;28;20058;-55
2024/01/01 06:22:46;;;;;;;14.10;10.70;;;9.80;99.90;;;;;;4957794;29;20028;-55
2024/01/01 06:25:12;;;;;;;10.70;8.15;;;9.90;99.90;;;;;;4957451;29;20411;-52
2024/01/01 06:27:38;;;;;;;15.40;9.90;;;9.90;99.90;;;;;;4956576;29;20043;-53
2024/01/01 06:30:07;;;;;;;13.13;9.70;;;9.90;99.90;;;;;;4956271;29;20028;-52
2024/01/01 06:32:32;;;;;;;13.43;9.73;;;10.00;99.90;;;;;;4915663;29;20127;-52
2024/01/01 06:34:58;;;;;;;12.70;8.70;;;10.00;99.90;;;;;;4915475;29;20392;-53
2024/01/01 06:37:24;;;;;;;13.88;8.95;;;10.10;99.90;;;;;;4915558;29;20052;-55
2024/01/01 06:39:50;;;;;;;13.70;9.65;;;10.20;99.90;;;;;;4884100;29;20040;-54
2024/01/01 06:42:17;;;;;;;14.50;9.35;;;10.00;99.90;;;;;;4915338;29;20040;-55
2024/01/01 06:44:45;;;;;;;14.65;8.75;;;10.00;99.90;;;;;;4915558;29;20385;-56
2024/01/01 06:47:11;;;;;;;10.25;7.55;;;9.90;99.90;;;;;;4915285;29;20600;-53
2024/01/01 06:49:36;;;;;;;10.20;6.53;;;9.80;99.90;;;;;;4915431;29;20115;-57
2024/01/01 06:52:03;;;;;;;15.07;9.02;;;9.70;99.90;;;;;;4915164;29;20040;-52
2024/01/01 06:54:29;;;;;;;12.60;8.43;;;9.60;99.90;;;;;;4883910;29;20615;-52
2024/01/01 06:56:55;;;;;;;12.23;8.20;;;9.70;99.90;;;;;;4915341;29;20051;-56
2024/01/01 06:59:27;;;;;;;8.18;4.57;;;9.70;99.90;;;;;;4868132;29;20036;-54
2024/01/01 07:01:53;;;;;;;6.45;5.05;;;9.90;99.90;;;;;;4915246;29;20508;-53
2024/01/01 07:04:18;;;;;;;8.57;5.88;;;10.00;99.90;;;;;;4948378;29;20093;-56
2024/01/01 07:06:44;;;;;;;7.90;3.65;;;10.10;99.90;;;;;;4955582;29;20114;-51
2024/01/01 07:09:10;;;;;;;7.00;5.65;;;10.10;99.90;;;;;;4938363;29;20031;-55
2024/01/01 07:11:36;;;;;;;7.88;4.25;;;10.10;99.90;;;;;;4955022;29;20039;-54
2024/01/01 07:14:03;;;;;;;5.43;3.33;;;10.10;99.90;;;;;;4955854;29;20024;-56
2024/01/01 07:16:28;;;;;;;11.15;7.22;;;10.10;99.90;;;;;;4955633;29;20040;-55
2024/01/01 07:18:54;;;;;;;6.68;4.72;;;10.30;99.90;;;;;;4955550;29;20361;-50
2024/01/01 07:21:20;;;;;;;8.60;6.65;;;10.30;99.90;;;;;;4955618;29;20036;-57
2024/01/01 07:23:46;;;;;;;6.10;4.20;;;10.40;99.90;;;;;;4905608;29;20497;-55
2024/01/01 07:26:12;;;;;;;9.23;6.82;;;10.30;99.90;;;;;;4892150;29;1308667;-53
2024/01/01 07:28:37;;;;;;;10.30;7.82;;;10.40;99.90;;;;;;4906983;29;20399;-53
2024/01/01 07:31:03;;;;;;;18.23;10.35;;;10.50;99.90;;;;;;4906171;29;20051;-53
2024/01/01 07:33:29;;;;;;;14.63;9.15;;;10.70;99.90;;;;;;4956150;29;20049;-54
2024/01/01 07:35:55;;;;;;;11.20;8.60;;;;;;;;;;4956230;29;20478;-53
2024/01/01 07:38:21;;;;;;;14.10;8.73;;;10.90;99.90;;;;;;4956731;29;20480;-58
2024/01/01 07:40:47;;;;;;;11.38;9.13;;;;;;;;;;4919373;28;20055;-58
2024/01/01 07:43:13;;;;;;;14.10;10.90;;;11.20;99.90;;;;;;4946828;28;20119;-54
2024/01/01 07:45:38;;;;;;;16.13;12.55;;;11.50;99.90;;;;;;4955718;29;20107;-54
2024/01/01 07:48:06;;;;;;;16.88;12.60;;;11.70;99.90;;;;;;4954944;29;20475;-53
2024/01/01 07:50:32;;;;;;;14.95;10.95;;;11.70;99.90;;;;;;4914096;29;20537;-54
2024/01/01 07:52:58;;;;;;;14.07;11.00;;;11.70;99.90;;;;;;4955561;29;20063;-56
2024/01/01 07:55:23;;;;;;;15.20;10.00;;;11.80;99.90;;;;;;4955612;29;20027;-54
2024/01/01 07:57:49;;;;;;;17.02;10.15;;;11.80;99.90;;;;;;4955305;29;20086;-53
2024/01/01 08:00:15;;;;;;;15.95;10.40;;;11.80;99.90;;;;;;4955305;28;20360;-56
2024/01/01 08:02:43;;;;;;;14.55;9.55;;;11.80;99.90;;;;;;4952346;29;20027;-56
2024/01/01 08:05:09;;;;;;;14.45;9.18;;;11.90;99.90;;;;;;4952421;29;20038;-52
2024/01/01 08:07:34;;;;;;;12.00;6.70;;;12.00;99.90;;;;;;4952471;29;20024;-52
2024/01/01 08:10:00;;;;;;;12.70;7.50;;;;;;;;;;4955289;29;20503;-55
2024/01/01 08:12:26;;;;;;;15.93;8.15;;;12.00;99.90;;;;;;4953931;29;20391;-55
2024/01/01 08:14:52;;;;;;;16.27;9.65;;;11.90;99.90;;;;;;4946722;29;20027;-54
2024/01/01 08:17:18;;;;;;;14.68;10.32;;;12.30;99.90;;;;;;4947009;29;20031;-55
2024/01/01 08:19:44;;;;;;;13.43;9.35;;;;;;;;;;4948358;29;20034;-52
2024/01/01 08:22:10;;;;;;;8.68;7.07;;;;;;;;;;4947259;29;20122;-56
2024/01/01 08:24:37;;;;;;;9.27;7.53;;;;;;;;;;4947168;29;20486;-54
2024/01/01 08:27:03;;;;;;;10.13;7.88;;;;;;;;;;4945444;29;20051;-56
2024/01/01 08:29:29;;;;;;;16.67;14.93;;;19.90;91.20;;;;;;4948011;29;20040;-52
2024/01/01 08:31:56;;;;;;;17.90;15.15;;;;;;;;;;4941878;29;20034;-53
2024/01/01 08:34:21;;;;;;;34.25;23.88;;;20.50;99.90;;;;;;4943972;28;20046;-57
2024/01/01 08:36:48;;;;;;;19.77;15.00;;;;;;;;;;4948226;29;20039;-56
2024/01/01 08:39:33;;;;;;;11.23;9.35;;;;;;;;;;4902928;29;20040;-56
2024/01/01 08:41:59;;;;;;;10.50;9.32;;;;;;;;;;4904589;29;20182;-56
2024/01/01 08:44:26;;;;;;;11.70;10.25;;;;;;;;;;4885607;29;20116;-56
2024/01/01 08:46:52;;;;;;;17.58;14.00;;;;;;;;;;4860385;29;20048;-52
2024/01/01 08:49:17;;;;;;;14.30;12.13;;;22.50;85.80;;;;;;4888134;29;20107;-55
2024/01/01 08:51:44;;;;;;;17.08;13.73;;;;;;;;;;4901399;29;20569;-57
2024/01/01 08:54:12;;;;;;;21.08;17.75;;;;;;;;;;4900964;29;20029;-57
2024/01/01 08:56:38;;;;;;;26.90;23.02;;;23.20;83.00;;;;;;4896095;29;20040;-57
2024/01/01 08:59:03;;;;;;;26.52;20.85;;;22.70;82.20;;;;;;4890071;29;20039;-57
2024/01/01 09:01:29;;;;;;;22.65;16.75;;;21.30;82.80;;;;;;4906013;29;20032;-56
2024/01/01 09:03:56;;;;;;;18.13;14.35;;;21.90;83.50;;;;;;4855092;29;20095;-58
2024/01/01 09:06:22;;;;;;;14.73;12.50;;;22.30;83.00;;;;;;4902317;29;20039;-57
2024/01/01 09:08:48;;;;;;;15.18;12.63;;;;;;;;;;4872271;29;20044;-55
2024/01/01 09:11:14;;;;;;;15.77;12.90;;;23.30;81.40;;;;;;4938601;28;20049;-56
2024/01/01 09:13:40;;;;;;;13.85;12.35;;;;;;;;;;4890316;29;20394;-56
2024/01/01 09:16:07;;;;;;;14.30;12.80;;;;;;;;;;4924436;29;20042;-54
2024/01/01 09:18:32;;;;;;;12.68;10.80;;;25.90;95.10;;;;;;4910612;29;20038;-56
2024/01/01 09:20:58;;;;;;;11.52;10.07;;;26.10;78.00;;;;;;4951713;29;20395;-58
2024/01/01 09:23:26;;;;;;;13.10;11.10;;;25.10;77.70;;;;;;4952454;29;20019;-55
2024/01/01 09:25:54;;;;;;;14.68;11.95;;;24.20;96.60;;;;;;4949475;29;20459;-53
2024/01/01 09:28:20;;;;;;;13.98;11.93;;;;;;;;;;4950098;29;20125;-58
2024/01/01 09:30:46;;;;;;;13.45;11.38;;;24.80;78.80;;;;;;4949891;29;20055;-55
2024/01/01 09:33:12;;;;;;;11.65;10.45;;;;;;;;;;4932773;29;20066;-58
2024/01/01 09:35:38;;;;;;;12.45;10.88;;;;;;;;;;4951728;29;20058;-53
2024/01/01 09:38:04;;;;;;;20.50;15.50;;;28.20;76.80;;;;;;4951670;29;20110;-55
2024/01/01 09:40:30;;;;;;;16.95;14.00;;;;;;;;;;4951973;29;21895;-55
2024/01/01 09:42:56;;;;;;;15.98;13.85;;;;;;;;;;4949393;29;20030;-54
2024/01/01 09:45:23;;;;;;;23.75;18.33;;;;;;;;;;4927666;29;20032;-53
2024/01/01 09:47:50;;;;;;;11.25;10.07;;;;;;;;;;4952198;29;20027;-55
2024/01/01 09:50:16;;;;;;;26.52;23.92;;;;;;;;;;4950307;29;20023;-55
2024/01/01 09:52:42;;;;;;;16.15;9.60;;;27.30;72.20;;;;;;4925760;29;20031;-54
2024/01/01 09:55:08;;;;;;;11.30;10.05;;;25.70;74.70;;;;;;4950661;28;20031;-54
2024/01/01 09:57:34;;;;;;;14.95;10.15;;;23.30;77.40;;;;;;4902078;29;20054;-56
2024/01/01 10:00:05;;;;;;;31.55;19.52;;;;;;;;;;4952115;29;20039;-54
2024/01/01 10:02:31;;;;;;;10.05;7.10;;;;;;;;;;4951631;29;20063;-54
2024/01/01 10:05:17;;;;;;;12.18;8.65;;;;;;;;;;4951636;29;20066;-54
2024/01/01 10:07:47;;;;;;;8.55;5.50;;;;;;;;;;4951020;29;20073;-56
2024/01/01 10:10:27;;;;;;;70.60;33.80;;;13.20;99.90;;;;;;4953034;29;20043;-56
2024/01/01 10:12:52;;;;;;;33.08;13.23;;;13.10;99.90;;;;;;4952761;29;20027;-58
2024/01/01 10:15:19;;;;;;;129.05;46.63;;;12.80;99.90;;;;;;4951797;28;20070;-57
2024/01/01 10:17:45;;;;;;;69.80;23.55;;;12.60;99.90;;;;;;4935332;29;20043;-54
2024/01/01 10:20:12;;;;;;;73.20;28.00;;;;;;;;;;4946283;29;20062;-59
2024/01/01 10:22:39;;;;;;;46.28;18.55;;;12.00;99.90;;;;;;4892604;29;20666;-55
2024/01/01 10:25:12;;;;;;;108.88;41.00;;;11.80;99.90;;;;;;4933476;29;20031;-54
2024/01/01 10:27:38;;;;;;;36.70;14.40;;;11.70;99.90;;;;;;4915245;29;20067;-53
2024/01/01 10:30:05;;;;;;;108.85;37.35;;;11.50;99.90;;;;;;4950079;28;20031;-57
2024/01/01 10:32:32;;;;;;;19.77;11.65;;;11.50;99.90;;;;;;4949466;29;20058;-52
2024/01/01 10:35:01;;;;;;;23.05;10.07;;;12.30;99.90;;;;;;4950968;28;20035;-56
2024/01/01 10:37:29;;;;;;;47.90;18.70;;;12.50;99.90;;;;;;4951832;29;20050;-55
2024/01/01 10:39:59;;;;;;;74.80;21.83;;;12.70;99.90;;;;;;4951650;29;20035;-55
2024/01/01 10:42:31;;;;;;;23.35;8.48;;;12.40;99.90;;;;;;4951461;29;20027;-52
2024/01/01 10:44:57;;;;;;;50.65;17.17;;;12.30;99.90;;;;;;4952228;29;20046;-51
2024/01/01 10:47:25;;;;;;;8.20;4.63;;;11.80;99.90;;;;;;4950193;29;20043;-57
2024/01/01 10:49:57;;;;;;;14.48;6.18;;;11.80;99.90;;;;;;4949403;29;20102;-56
2024/01/01 10:52:38;;;;;;;29.05;10.13;;;11.50;99.90;;;;;;4951296;29;20114;-52
2024/01/01 10:55:13;;;;;;;4.60;3.22;;;11.50;99.90;;;;;;4941425;29;20039;-53
2024/01/01 10:58:07;;;;;;;4.95;2.22;;;11.40;99.90;;;;;;4949834;29;20027;-53
2024/01/01 11:01:13;;;;;;;5.65;3.33;;;11.00;99.90;;;;;;4946511;29;20051;-55
2024/01/01 11:03:39;;;;;;;4.60;3.03;;;10.60;99.90;;;;;;4873665;29;20056;-58
2024/01/01 11:06:24;;;;;;;4.25;2.15;;;10.60;99.90;;;;;;4842558;29;20076;-56
2024/01/01 11:08:50;;;;;;;13.90;3.15;;;10.50;99.90;;;;;;4923298;29;20039;-58
2024/01/01 11:11:24;;;;;;;4.60;2.83;;;;;;;;;;4951673;29;20023;-59
2024/01/01 11:13:50;;;;;;;11.15;5.47;;;;;;;;;;4953075;29;20035;-58
2024/01/01 11:16:16;;;;;;;5.53;3.30;;;;;;;;;;4952543;28;20059;-56
2024/01/01 11:18:44;;;;;;;8.85;4.85;;;;;;;;;;4952757;29;20027;-57
2024/01/01 11:21:10;;;;;;;15.82;8.38;;;;;;;;;;4953600;29;20031;-53
2024/01/01 11:23:43;;;;;;;10.32;5.18;;;;;;;;;;4954624;29;20541;-57
2024/01/01 11:26:24;;;;;;;6.47;4.10;;;;;;;;;;4953860;29;20023;-57
2024/01/01 11:28:51;;;;;;;4.80;2.87;;;;;;;;;;4952552;29;20050;-54
2024/01/01 11:31:17;;;;;;;10.60;5.82;;;;;;;;;;4955431;29;20258;-58
2024/01/01 11:33:43;;;;;;;11.77;6.97;;;;;;;;;;4889565;29;20035;-60
2024/01/01 11:36:10;;;;;;;8.02;4.80;;;;;;;;;;4929990;29;20031;-54
2024/01/01 11:38:39;;;;;;;12.77;7.18;;;;;;;;;;4952622;28;20483;-55
2024/01/01 11:41:05;;;;;;;13.10;6.88;;;;;;;;;;4951132;28;20027;-54
2024/01/01 11:43:32;;;;;;;7.00;5.05;;;;;;;;;;4927698;29;20121;-54
2024/01/01 11:45:58;;;;;;;5.93;4.47;;;;;;;;;;4954921;29;20079;-52
2024/01/01 11:48:24;;;;;;;5.32;3.70;;;;;;;;;;4904845;29;20098;-57
2024/01/01 11:50:53;;;;;;;7.50;4.47;;;;;;;;;;4954880;29;20042;-53
2024/01/01 11:53:19;;;;;;;9.35;3.95;;;;;;;;;;4954896;29;20114;-53
2024/01/01 11:55:45;;;;;;;14.43;5.32;;;;;;;;;;4955493;29;20503;-57
2024/01/01 11:58:12;;;;;;;7.57;4.00;;;;;;;;;;4955186;29;20038;-59
2024/01/01 12:00:38;;;;;;;10.00;5.40;;;;;;;;;;4953258;28;20111;-57
2024/01/01 12:03:05;;;;;;;4.18;2.72;;;;;;;;;;4954183;29;20062;-56
2024/01/01 12:05:32;;;;;;;7.43;3.65;;;;;;;;;;4917441;29;20036;-57
2024/01/01 12:08:00;;;;;;;5.32;3.08;;;;;;;;;;4954338;29;20043;-57
2024/01/01 12:10:28;;;;;;;4.90;2.20;;;;;;;;;;4917893;29;20035;-55
2024/01/01 12:13:02;;;;;;;4.10;2.63;;;;;;;;;;4919593;28;20055;-55
2024/01/01 12:15:31;;;;;;;6.53;3.83;;;;;;;;;;4953148;29;20027;-53
2024/01/01 12:17:57;;;;;;;4.75;2.78;;;;;;;;;;4950883;28;20039;-57
2024/01/01 12:20:24;;;;;;;4.43;2.83;;;9.50;99.90;;;;;;4904994;29;20035;-56
2024/01/01 12:22:50;;;;;;;4.53;2.58;;;9.50;99.90;;;;;;4954487;29;20031;-53
2024/01/01 12:25:18;;;;;;;3.92;2.70;;;9.50;99.90;;;;;;4954546;29;20499;-56
2024/01/01 12:27:45;;;;;;;4.45;3.50;;;;;;;;;;4953208;29;20062;-54
2024/01/01 12:30:27;;;;;;;6.38;3.60;;;;;;;;;;4920155;29;20035;-52
2024/01/01 12:32:54;;;;;;;5.50;2.97;;;9.70;99.90;;;;;;4952905;29;20035;-54
2024/01/01 12:35:20;;;;;;;8.57;5.45;;;9.60;99.90;;;;;;4927067;29;20557;-54
2024/01/01 12:37:47;;;;;;;6.47;3.15;;;9.60;99.90;;;;;;4952003;29;20039;-53
2024/01/01 12:40:14;;;;;;;5.47;2.42;;;9.70;99.90;;;;;;4954476;29;20467;-55
2024/01/01 12:42:45;;;;;;;4.07;2.05;;;;;;;;;;4954564;29;20046;-55
2024/01/01 12:45:12;;;;;;;3.08;2.20;;;;;;;;;;4954256;29;20040;-55
2024/01/01 12:47:39;;;;;;;3.45;2.38;;;;;;;;;;4920027;29;20047;-54
2024/01/01 12:50:06;;;;;;;3.75;2.50;;;9.50;99.90;;;;;;4954559;29;20115;-52
2024/01/01 12:52:32;;;;;;;4.45;2.67;;;9.50;99.90;;;;;;4919956;29;20070;-56
2024/01/01 12:54:57;;;;;;;4.50;2.30;;;9.50;99.90;;;;;;4954063;29;20566;-56
2024/01/01 12:57:23;;;;;;;2.17;1.75;;;9.50;99.90;;;;;;4954124;29;20027;-53
2024/01/01 12:59:49;;;;;;;3.08;2.20;;;;;;;;;;4919784;29;20724;-54
2024/01/01 13:02:15;;;;;;;12.13;7.15;;;;;;;;;;4920048;29;20118;-53
2024/01/01 13:04:41;;;;;;;22.10;12.20;;;;;;;;;;4953827;29;20035;-53
2024/01/01 13:07:07;;;;;;;6.32;4.32;;;;;;;;;;4953857;29;20090;-54